sensor_id;sensor_type;location;lat;lon;timestamp;temperature;humidity
13433;DHT22;6789;47.678;9.158;2023-05-07T00:00:50;15.00;99.90
13433;DHT22;6789;47.678;9.158;2023-05-07T00:06:01;15.00;99.90
13433;DHT22;6789;47.678;9.158;2023-05-07T00:10:53;15.00;99.90
13433;DHT22;6789;47.678;9.158;2023-05-07T00:15:45;15.00;99.90
13433;DHT22;6789;47.678;9.158;2023-05-07T00:20:52;14.90;99.90
13433;DHT22;6789;47.678;9.158;2023-05-07T00:26:08;14.80;99.90
13433;DHT22;6789;47.678;9.158;2023-05-07T00:31:28;14.80;99.90
13433;DHT22;6789;47.678;9.158;2023-05-07T00:36:36;14.70;99.90
13433;DHT22;6789;47.678;9.158;2023-05-07T00:41:50;14.60;99.90
13433;DHT22;6789;47.678;9.158;2023-05-07T00:46:57;14.50;99.90
13433;DHT22;6789;47.678;9.158;2023-05-07T00:52:07;14.50;99.90
13433;DHT22;6789;47.678;9.158;2023-05-07T00:57:37;14.40;99.90
13433;DHT22;6789;47.678;9.158;2023-05-07T01:02:47;14.50;99.90
13433;DHT22;6789;47.678;9.158;2023-05-07T01:08:06;14.40;99.90
13433;DHT22;6789;47.678;9.158;2023-05-07T01:13:58;14.40;99.90
13433;DHT22;6789;47.678;9.158;2023-05-07T01:19:24;14.40;99.90
13433;DHT22;6789;47.678;9.158;2023-05-07T01:24:42;14.30;99.90
13433;DHT22;6789;47.678;9.158;2023-05-07T01:29:50;14.30;99.90
13433;DHT22;6789;47.678;9.158;2023-05-07T01:34:57;14.20;99.90
13433;DHT22;6789;47.678;9.158;2023-05-07T01:40:06;14.20;99.90
13433;DHT22;6789;47.678;9.158;2023-05-07T01:44:59;14.20;99.90
13433;DHT22;6789;47.678;9.158;2023-05-07T01:49:52;14.20;99.90
13433;DHT22;6789;47.678;9.158;2023-05-07T01:54:44;14.20;99.90
13433;DHT22;6789;47.678;9.158;2023-05-07T01:59:35;14.10;99.90
13433;DHT22;6789;47.678;9.158;2023-05-07T02:04:27;14.00;99.90
13433;DHT22;6789;47.678;9.158;2023-05-07T02:09:44;14.00;99.90
13433;DHT22;6789;47.678;9.158;2023-05-07T02:14:35;14.00;99.90
13433;DHT22;6789;47.678;9.158;2023-05-07T02:19:27;13.90;99.90
13433;DHT22;6789;47.678;9.158;2023-05-07T02:24:19;13.90;99.90
13433;DHT22;6789;47.678;9.158;2023-05-07T02:29:11;13.70;99.90
13433;DHT22;6789;47.678;9.158;2023-05-07T02:34:02;13.70;99.90
13433;DHT22;6789;47.678;9.158;2023-05-07T02:38:55;13.60;99.90
13433;DHT22;6789;47.678;9.158;2023-05-07T02:43:47;13.50;99.90
13433;DHT22;6789;47.678;9.158;2023-05-07T02:48:38;13.50;99.90
13433;DHT22;6789;47.678;9.158;2023-05-07T02:53:30;13.40;99.90
13433;DHT22;6789;47.678;9.158;2023-05-07T02:58:22;13.40;99.90
13433;DHT22;6789;47.678;9.158;2023-05-07T03:03:14;13.40;99.90
13433;DHT22;6789;47.678;9.158;2023-05-07T03:08:07;13.40;99.90
13433;DHT22;6789;47.678;9.158;2023-05-07T03:13:01;13.30;99.90
13433;DHT22;6789;47.678;9.158;2023-05-07T03:17:52;13.30;99.90
13433;DHT22;6789;47.678;9.158;2023-05-07T03:22:44;13.20;99.90
13433;DHT22;6789;47.678;9.158;2023-05-07T03:27:36;13.00;99.90
13433;DHT22;6789;47.678;9.158;2023-05-07T03:32:28;12.90;99.90
13433;DHT22;6789;47.678;9.158;2023-05-07T03:37:20;12.90;99.90
13433;DHT22;6789;47.678;9.158;2023-05-07T03:42:13;12.70;99.90
13433;DHT22;6789;47.678;9.158;2023-05-07T03:47:05;12.70;99.90
13433;DHT22;6789;47.678;9.158;2023-05-07T03:51:56;12.60;99.90
13433;DHT22;6789;47.678;9.158;2023-05-07T03:56:48;12.60;99.90
13433;DHT22;6789;47.678;9.158;2023-05-07T04:01:40;12.60;99.90
13433;DHT22;6789;47.678;9.158;2023-05-07T04:06:32;12.60;99.90
13433;DHT22;6789;47.678;9.158;2023-05-07T04:11:26;12.60;99.90
13433;DHT22;6789;47.678;9.158;2023-05-07T04:16:18;12.60;99.90
13433;DHT22;6789;47.678;9.158;2023-05-07T04:21:20;12.80;99.90
13433;DHT22;6789;47.678;9.158;2023-05-07T04:26:13;13.00;99.90
13433;DHT22;6789;47.678;9.158;2023-05-07T04:31:06;13.30;99.90
13433;DHT22;6789;47.678;9.158;2023-05-07T04:36:00;13.70;99.90
13433;DHT22;6789;47.678;9.158;2023-05-07T04:41:08;14.10;99.90
13433;DHT22;6789;47.678;9.158;2023-05-07T04:46:02;14.80;99.90
13433;DHT22;6789;47.678;9.158;2023-05-07T04:50:53;15.60;99.90
13433;DHT22;6789;47.678;9.158;2023-05-07T04:55:56;16.00;99.90
13433;DHT22;6789;47.678;9.158;2023-05-07T05:00:48;16.90;99.90
13433;DHT22;6789;47.678;9.158;2023-05-07T05:05:54;17.90;99.90
13433;DHT22;6789;47.678;9.158;2023-05-07T05:10:48;18.70;99.90
13433;DHT22;6789;47.678;9.158;2023-05-07T05:15:41;19.10;99.90
13433;DHT22;6789;47.678;9.158;2023-05-07T05:20:33;19.80;99.90
13433;DHT22;6789;47.678;9.158;2023-05-07T05:25:26;20.30;99.90
13433;DHT22;6789;47.678;9.158;2023-05-07T05:30:20;21.00;99.90
13433;DHT22;6789;47.678;9.158;2023-05-07T05:35:25;21.90;99.90
13433;DHT22;6789;47.678;9.158;2023-05-07T05:40:18;22.30;99.90
13433;DHT22;6789;47.678;9.158;2023-05-07T05:45:10;22.50;99.90
13433;DHT22;6789;47.678;9.158;2023-05-07T05:50:02;22.30;99.90
13433;DHT22;6789;47.678;9.158;2023-05-07T05:54:57;22.00;99.90
13433;DHT22;6789;47.678;9.158;2023-05-07T06:00:04;22.30;99.90
13433;DHT22;6789;47.678;9.158;2023-05-07T06:05:00;22.60;99.90
13433;DHT22;6789;47.678;9.158;2023-05-07T06:09:54;22.70;99.90
13433;DHT22;6789;47.678;9.158;2023-05-07T06:14:51;22.90;99.90
13433;DHT22;6789;47.678;9.158;2023-05-07T06:19:58;23.20;99.90
13433;DHT22;6789;47.678;9.158;2023-05-07T06:25:04;22.90;99.90
13433;DHT22;6789;47.678;9.158;2023-05-07T06:29:58;21.90;99.90
13433;DHT22;6789;47.678;9.158;2023-05-07T06:34:53;21.80;99.90
13433;DHT22;6789;47.678;9.158;2023-05-07T06:39:59;21.90;99.90
13433;DHT22;6789;47.678;9.158;2023-05-07T06:44:53;21.90;99.90
13433;DHT22;6789;47.678;9.158;2023-05-07T06:49:46;21.50;99.90
13433;DHT22;6789;47.678;9.158;2023-05-07T06:54:52;21.50;99.90
13433;DHT22;6789;47.678;9.158;2023-05-07T06:59:53;21.40;99.90
13433;DHT22;6789;47.678;9.158;2023-05-07T07:04:58;21.70;99.90
13433;DHT22;6789;47.678;9.158;2023-05-07T07:09:52;21.20;99.90
13433;DHT22;6789;47.678;9.158;2023-05-07T07:14:46;21.10;99.90
13433;DHT22;6789;47.678;9.158;2023-05-07T07:19:52;21.10;99.90
13433;DHT22;6789;47.678;9.158;2023-05-07T07:24:57;21.10;99.90
13433;DHT22;6789;47.678;9.158;2023-05-07T07:29:50;21.40;99.90
13433;DHT22;6789;47.678;9.158;2023-05-07T07:34:42;21.40;99.90
13433;DHT22;6789;47.678;9.158;2023-05-07T07:39:48;21.60;99.90
13433;DHT22;6789;47.678;9.158;2023-05-07T07:44:40;21.50;99.90
13433;DHT22;6789;47.678;9.158;2023-05-07T07:49:35;21.30;99.90
13433;DHT22;6789;47.678;9.158;2023-05-07T07:54:31;21.20;99.90
13433;DHT22;6789;47.678;9.158;2023-05-07T07:59:32;21.30;99.90
13433;DHT22;6789;47.678;9.158;2023-05-07T08:05:04;20.70;99.90
13433;DHT22;6789;47.678;9.158;2023-05-07T08:09:57;20.40;99.90
13433;DHT22;6789;47.678;9.158;2023-05-07T08:14:49;20.70;99.90
13433;DHT22;6789;47.678;9.158;2023-05-07T08:19:40;21.20;99.90
13433;DHT22;6789;47.678;9.158;2023-05-07T08:24:33;21.30;99.90
13433;DHT22;6789;47.678;9.158;2023-05-07T08:29:25;21.10;99.90
13433;DHT22;6789;47.678;9.158;2023-05-07T08:34:16;21.10;99.90
13433;DHT22;6789;47.678;9.158;2023-05-07T08:39:08;21.50;99.90
13433;DHT22;6789;47.678;9.158;2023-05-07T08:44:02;21.70;99.90
13433;DHT22;6789;47.678;9.158;2023-05-07T08:49:09;21.90;99.90
13433;DHT22;6789;47.678;9.158;2023-05-07T08:54:02;22.20;99.90
13433;DHT22;6789;47.678;9.158;2023-05-07T08:58:54;22.20;99.90
13433;DHT22;6789;47.678;9.158;2023-05-07T09:03:50;22.30;99.90
13433;DHT22;6789;47.678;9.158;2023-05-07T09:08:57;22.60;99.90
13433;DHT22;6789;47.678;9.158;2023-05-07T09:14:03;22.70;99.90
13433;DHT22;6789;47.678;9.158;2023-05-07T09:19:29;23.10;99.90
13433;DHT22;6789;47.678;9.158;2023-05-07T09:24:37;23.40;99.90
13433;DHT22;6789;47.678;9.158;2023-05-07T09:29:44;23.00;99.90
13433;DHT22;6789;47.678;9.158;2023-05-07T09:34:43;23.00;99.90
13433;DHT22;6789;47.678;9.158;2023-05-07T09:39:44;23.30;99.90
13433;DHT22;6789;47.678;9.158;2023-05-07T09:44:53;23.40;99.90
13433;DHT22;6789;47.678;9.158;2023-05-07T09:49:50;23.60;99.90
13433;DHT22;6789;47.678;9.158;2023-05-07T09:55:02;24.10;99.90
13433;DHT22;6789;47.678;9.158;2023-05-07T09:59:56;24.20;99.90
13433;DHT22;6789;47.678;9.158;2023-05-07T10:04:50;24.30;99.90
13433;DHT22;6789;47.678;9.158;2023-05-07T10:09:59;24.70;99.90
13433;DHT22;6789;47.678;9.158;2023-05-07T10:14:53;24.50;99.90
13433;DHT22;6789;47.678;9.158;2023-05-07T10:20:00;24.20;99.90
13433;DHT22;6789;47.678;9.158;2023-05-07T10:25:20;24.20;99.90
13433;DHT22;6789;47.678;9.158;2023-05-07T10:35:59;24.80;99.90
13433;DHT22;6789;47.678;9.158;2023-05-07T10:41:00;25.20;99.90
13433;DHT22;6789;47.678;9.158;2023-05-07T10:46:16;25.70;99.90
13433;DHT22;6789;47.678;9.158;2023-05-07T10:51:23;25.60;99.90
13433;DHT22;6789;47.678;9.158;2023-05-07T10:56:24;25.00;99.90
13433;DHT22;6789;47.678;9.158;2023-05-07T11:01:50;24.10;99.90
13433;DHT22;6789;47.678;9.158;2023-05-07T11:17:31;25.20;99.90
13433;DHT22;6789;47.678;9.158;2023-05-07T11:22:39;24.90;99.90
13433;DHT22;6789;47.678;9.158;2023-05-07T11:27:35;25.20;99.90
13433;DHT22;6789;47.678;9.158;2023-05-07T11:32:43;24.80;99.90
13433;DHT22;6789;47.678;9.158;2023-05-07T11:37:44;25.60;99.90
13433;DHT22;6789;47.678;9.158;2023-05-07T11:42:52;26.20;99.90
13433;DHT22;6789;47.678;9.158;2023-05-07T11:47:57;25.90;99.90
13433;DHT22;6789;47.678;9.158;2023-05-07T11:52:53;25.60;99.90
13433;DHT22;6789;47.678;9.158;2023-05-07T11:57:45;25.90;99.90
13433;DHT22;6789;47.678;9.158;2023-05-07T12:02:39;25.90;99.90
13433;DHT22;6789;47.678;9.158;2023-05-07T12:07:37;25.40;99.90
13433;DHT22;6789;47.678;9.158;2023-05-07T12:12:40;25.50;99.90
13433;DHT22;6789;47.678;9.158;2023-05-07T12:17:49;24.30;99.90
13433;DHT22;6789;47.678;9.158;2023-05-07T12:22:56;24.50;99.90
13433;DHT22;6789;47.678;9.158;2023-05-07T12:45:17;24.20;99.90
13433;DHT22;6789;47.678;9.158;2023-05-07T12:50:22;24.80;99.90
13433;DHT22;6789;47.678;9.158;2023-05-07T12:55:42;25.00;99.90
13433;DHT22;6789;47.678;9.158;2023-05-07T13:00:49;25.50;99.90
13433;DHT22;6789;47.678;9.158;2023-05-07T13:05:59;25.90;99.90
13433;DHT22;6789;47.678;9.158;2023-05-07T13:11:15;26.30;99.90
13433;DHT22;6789;47.678;9.158;2023-05-07T13:16:21;26.40;99.90
13433;DHT22;6789;47.678;9.158;2023-05-07T13:21:26;25.90;99.90
13433;DHT22;6789;47.678;9.158;2023-05-07T13:26:23;25.50;99.90
13433;DHT22;6789;47.678;9.158;2023-05-07T13:31:29;25.20;99.90
13433;DHT22;6789;47.678;9.158;2023-05-07T13:36:35;25.20;99.90
13433;DHT22;6789;47.678;9.158;2023-05-07T13:41:44;25.20;99.90
13433;DHT22;6789;47.678;9.158;2023-05-07T13:46:37;25.40;99.90
13433;DHT22;6789;47.678;9.158;2023-05-07T13:51:43;25.00;99.90
13433;DHT22;6789;47.678;9.158;2023-05-07T13:56:49;25.10;99.90
13433;DHT22;6789;47.678;9.158;2023-05-07T14:01:55;25.00;99.90
13433;DHT22;6789;47.678;9.158;2023-05-07T14:07:03;24.90;99.90
13433;DHT22;6789;47.678;9.158;2023-05-07T14:12:08;24.80;99.90
13433;DHT22;6789;47.678;9.158;2023-05-07T14:17:15;24.80;99.90
13433;DHT22;6789;47.678;9.158;2023-05-07T14:22:26;24.70;99.90
13433;DHT22;6789;47.678;9.158;2023-05-07T14:27:32;24.50;99.90
13433;DHT22;6789;47.678;9.158;2023-05-07T14:32:38;23.50;99.90
13433;DHT22;6789;47.678;9.158;2023-05-07T14:37:43;23.00;99.90
13433;DHT22;6789;47.678;9.158;2023-05-07T14:42:36;22.20;99.90
13433;DHT22;6789;47.678;9.158;2023-05-07T14:47:33;22.00;99.90
13433;DHT22;6789;47.678;9.158;2023-05-07T14:52:40;22.00;99.90
13433;DHT22;6789;47.678;9.158;2023-05-07T14:57:34;21.90;99.90
13433;DHT22;6789;47.678;9.158;2023-05-07T15:02:40;21.80;99.90
13433;DHT22;6789;47.678;9.158;2023-05-07T15:07:32;21.70;99.90
13433;DHT22;6789;47.678;9.158;2023-05-07T15:12:25;21.90;99.90
13433;DHT22;6789;47.678;9.158;2023-05-07T15:17:17;21.80;99.90
13433;DHT22;6789;47.678;9.158;2023-05-07T15:22:16;22.10;99.90
13433;DHT22;6789;47.678;9.158;2023-05-07T15:27:08;22.40;99.90
13433;DHT22;6789;47.678;9.158;2023-05-07T15:32:00;22.60;99.90
13433;DHT22;6789;47.678;9.158;2023-05-07T15:36:51;22.60;99.90
13433;DHT22;6789;47.678;9.158;2023-05-07T15:41:43;22.70;99.90
13433;DHT22;6789;47.678;9.158;2023-05-07T15:46:35;22.50;99.90
13433;DHT22;6789;47.678;9.158;2023-05-07T15:51:27;22.40;99.90
13433;DHT22;6789;47.678;9.158;2023-05-07T15:56:19;22.20;99.90
13433;DHT22;6789;47.678;9.158;2023-05-07T16:01:11;22.00;99.90
13433;DHT22;6789;47.678;9.158;2023-05-07T16:06:04;22.00;99.90
13433;DHT22;6789;47.678;9.158;2023-05-07T16:11:14;22.10;99.90
13433;DHT22;6789;47.678;9.158;2023-05-07T16:16:21;22.00;99.90
13433;DHT22;6789;47.678;9.158;2023-05-07T16:21:27;21.90;99.90
13433;DHT22;6789;47.678;9.158;2023-05-07T16:26:35;21.80;99.90
13433;DHT22;6789;47.678;9.158;2023-05-07T16:31:41;21.60;99.90
13433;DHT22;6789;47.678;9.158;2023-05-07T16:36:48;21.50;99.90
13433;DHT22;6789;47.678;9.158;2023-05-07T16:41:54;21.20;99.90
13433;DHT22;6789;47.678;9.158;2023-05-07T16:47:01;20.90;99.90
13433;DHT22;6789;47.678;9.158;2023-05-07T16:52:08;20.60;99.90
13433;DHT22;6789;47.678;9.158;2023-05-07T17:03:41;20.20;99.90
13433;DHT22;6789;47.678;9.158;2023-05-07T17:08:46;20.10;99.90
13433;DHT22;6789;47.678;9.158;2023-05-07T17:13:39;20.00;99.90
13433;DHT22;6789;47.678;9.158;2023-05-07T17:18:34;19.90;99.90
13433;DHT22;6789;47.678;9.158;2023-05-07T17:23:27;19.70;99.90
13433;DHT22;6789;47.678;9.158;2023-05-07T17:28:20;19.40;99.90
13433;DHT22;6789;47.678;9.158;2023-05-07T17:33:26;19.40;99.90
13433;DHT22;6789;47.678;9.158;2023-05-07T17:38:18;19.10;99.90
13433;DHT22;6789;47.678;9.158;2023-05-07T17:43:24;18.60;99.90
13433;DHT22;6789;47.678;9.158;2023-05-07T17:48:30;18.20;99.90
13433;DHT22;6789;47.678;9.158;2023-05-07T17:53:36;18.00;99.90
13433;DHT22;6789;47.678;9.158;2023-05-07T17:58:42;17.80;99.90
13433;DHT22;6789;47.678;9.158;2023-05-07T18:03:49;17.60;99.90
13433;DHT22;6789;47.678;9.158;2023-05-07T18:08:55;17.40;99.90
13433;DHT22;6789;47.678;9.158;2023-05-07T18:14:01;17.30;99.90
13433;DHT22;6789;47.678;9.158;2023-05-07T18:19:28;17.30;99.90
13433;DHT22;6789;47.678;9.158;2023-05-07T18:24:35;17.30;99.90
13433;DHT22;6789;47.678;9.158;2023-05-07T18:30:01;17.00;99.90
13433;DHT22;6789;47.678;9.158;2023-05-07T18:35:08;16.90;99.90
13433;DHT22;6789;47.678;9.158;2023-05-07T18:40:14;16.90;99.90
13433;DHT22;6789;47.678;9.158;2023-05-07T18:45:39;16.80;99.90
13433;DHT22;6789;47.678;9.158;2023-05-07T18:50:52;16.80;99.90
13433;DHT22;6789;47.678;9.158;2023-05-07T18:55:59;16.80;99.90
13433;DHT22;6789;47.678;9.158;2023-05-07T19:01:17;16.70;99.90
13433;DHT22;6789;47.678;9.158;2023-05-07T19:06:38;16.60;99.90
13433;DHT22;6789;47.678;9.158;2023-05-07T19:11:49;16.60;99.90
13433;DHT22;6789;47.678;9.158;2023-05-07T19:17:05;16.50;99.90
13433;DHT22;6789;47.678;9.158;2023-05-07T19:22:17;16.60;99.90
13433;DHT22;6789;47.678;9.158;2023-05-07T19:27:34;16.60;99.90
13433;DHT22;6789;47.678;9.158;2023-05-07T19:32:41;16.60;99.90
13433;DHT22;6789;47.678;9.158;2023-05-07T19:37:56;16.60;99.90
13433;DHT22;6789;47.678;9.158;2023-05-07T19:43:02;16.50;99.90
13433;DHT22;6789;47.678;9.158;2023-05-07T19:48:10;16.60;99.90
13433;DHT22;6789;47.678;9.158;2023-05-07T19:53:19;16.60;99.90
13433;DHT22;6789;47.678;9.158;2023-05-07T19:58:25;16.50;99.90
13433;DHT22;6789;47.678;9.158;2023-05-07T20:04:00;16.50;99.90
13433;DHT22;6789;47.678;9.158;2023-05-07T20:09:19;16.50;99.90
13433;DHT22;6789;47.678;9.158;2023-05-07T20:14:26;16.40;99.90
13433;DHT22;6789;47.678;9.158;2023-05-07T20:19:25;16.50;99.90
13433;DHT22;6789;47.678;9.158;2023-05-07T20:24:36;16.50;99.90
13433;DHT22;6789;47.678;9.158;2023-05-07T20:29:43;16.40;99.90
13433;DHT22;6789;47.678;9.158;2023-05-07T20:34:51;16.30;99.90
13433;DHT22;6789;47.678;9.158;2023-05-07T20:39:48;16.20;99.90
13433;DHT22;6789;47.678;9.158;2023-05-07T20:44:54;16.10;99.90
13433;DHT22;6789;47.678;9.158;2023-05-07T20:50:03;16.00;99.90
13433;DHT22;6789;47.678;9.158;2023-05-07T20:55:10;16.00;99.90
13433;DHT22;6789;47.678;9.158;2023-05-07T21:00:18;15.90;99.90
13433;DHT22;6789;47.678;9.158;2023-05-07T21:05:24;15.90;99.90
13433;DHT22;6789;47.678;9.158;2023-05-07T21:10:46;15.90;99.90
13433;DHT22;6789;47.678;9.158;2023-05-07T21:16:04;15.90;99.90
13433;DHT22;6789;47.678;9.158;2023-05-07T21:21:09;15.90;99.90
13433;DHT22;6789;47.678;9.158;2023-05-07T21:26:29;15.80;99.90
13433;DHT22;6789;47.678;9.158;2023-05-07T21:31:36;15.70;99.90
13433;DHT22;6789;47.678;9.158;2023-05-07T21:37:01;15.60;99.90
13433;DHT22;6789;47.678;9.158;2023-05-07T21:42:09;15.50;99.90
13433;DHT22;6789;47.678;9.158;2023-05-07T21:47:15;15.50;99.90
13433;DHT22;6789;47.678;9.158;2023-05-07T21:52:43;15.50;99.90
13433;DHT22;6789;47.678;9.158;2023-05-07T21:58:01;15.40;99.90
13433;DHT22;6789;47.678;9.158;2023-05-07T22:03:56;15.30;99.90
13433;DHT22;6789;47.678;9.158;2023-05-07T22:09:23;15.30;99.90
13433;DHT22;6789;47.678;9.158;2023-05-07T22:14:31;15.30;99.90
13433;DHT22;6789;47.678;9.158;2023-05-07T22:19:37;15.20;99.90
13433;DHT22;6789;47.678;9.158;2023-05-07T22:31:12;15.30;99.90
13433;DHT22;6789;47.678;9.158;2023-05-07T22:36:19;15.30;99.90
13433;DHT22;6789;47.678;9.158;2023-05-07T22:41:36;15.20;99.90
13433;DHT22;6789;47.678;9.158;2023-05-07T22:46:57;15.00;99.90
13433;DHT22;6789;47.678;9.158;2023-05-07T23:03:24;14.70;99.90
13433;DHT22;6789;47.678;9.158;2023-05-07T23:08:16;14.70;99.90
13433;DHT22;6789;47.678;9.158;2023-05-07T23:13:07;14.60;99.90
13433;DHT22;6789;47.678;9.158;2023-05-07T23:18:05;14.60;99.90
13433;DHT22;6789;47.678;9.158;2023-05-07T23:22:57;14.60;99.90
13433;DHT22;6789;47.678;9.158;2023-05-07T23:27:49;14.70;99.90
13433;DHT22;6789;47.678;9.158;2023-05-07T23:32:40;14.60;99.90
13433;DHT22;6789;47.678;9.158;2023-05-07T23:37:32;14.60;99.90
13433;DHT22;6789;47.678;9.158;2023-05-07T23:42:24;14.60;99.90
13433;DHT22;6789;47.678;9.158;2023-05-07T23:47:16;14.70;99.90
13433;DHT22;6789;47.678;9.158;2023-05-07T23:52:08;14.70;99.90
13433;DHT22;6789;47.678;9.158;2023-05-07T23:57:00;14.80;99.90
